CheckWX is a tool to help pilots better visualize weather data.  It is not intended as a substitute for an official pre-flight weather briefing.

08:14:26 UTC

KTIF METAR
Thomas County Airport
Thedford, Nebraska, USA
Current

19 mins ago

KTIF 220755Z AUTO 06006KT 5SM -SN OVC024 M08/M09 A3014 RMK AO2 P0001 T10801091
Observed
Feb-22 @ 07:55 UTC
Wind
  • 060° at 6 KTS
Visibility
5 SM
Flight Rules
MVFR
Conditions
Light Snow
Cloud Levels
  • Overcast at 2,400' AGL
Temperature
-8°C / 18°F
Dewpoint
-9°C / 16°F
Humidity
93%
Altimeter
30.14" Hg
Pressure
1020.62 hPa
Current Rain
0.01"
Previous

39 mins ago

KTIF 220735Z AUTO 05005KT 1 3/4SM -SN SCT006 BKN012 OVC026 M08/M09 A3014 RMK AO2 T10801090
Observed
Feb-22 @ 07:35 UTC
Wind
  • 050° at 5 KTS
Visibility
1 3/4 SM
Flight Rules
IFR
Conditions
Light Snow
Cloud Levels
  • Scattered at 600' AGL
  • Broken at 1,200' AGL
  • Overcast at 2,600' AGL
Temperature
-8°C / 18°F
Dewpoint
-9°C / 16°F
Humidity
93%
Altimeter
30.14" Hg
Pressure
1020.62 hPa
Previous

59 mins ago

KTIF 220715Z AUTO 06006KT 2 1/2SM -SN BKN004 BKN017 OVC031 M08/M09 A3014 RMK AO2 T10781088
Observed
Feb-22 @ 07:15 UTC
Wind
  • 060° at 6 KTS
Visibility
2 1/2 SM
Flight Rules
LIFR
Conditions
Light Snow
Cloud Levels
  • Broken at 400' AGL
  • Broken at 1,700' AGL
  • Overcast at 3,100' AGL
Temperature
-8°C / 18°F
Dewpoint
-9°C / 16°F
Humidity
93%
Altimeter
30.14" Hg
Pressure
1020.62 hPa